createdAt,value
2023-03-27T00:01:58.617Z,93658.00
2023-03-27T00:05:58.774Z,93662.00
2023-03-27T00:09:58.806Z,93668.00
2023-03-27T00:13:58.959Z,93672.00
2023-03-27T00:17:59.113Z,93674.00
2023-03-27T00:21:59.202Z,93676.00
2023-03-27T00:25:59.329Z,93682.00
2023-03-27T00:29:59.452Z,93678.00
2023-03-27T00:33:59.483Z,93674.00
2023-03-27T00:37:59.611Z,93680.00
2023-03-27T00:41:59.732Z,93684.00
2023-03-27T00:45:59.904Z,93684.00
2023-03-27T00:49:59.960Z,93684.00
2023-03-27T00:54:00.069Z,93682.00
2023-03-27T00:58:00.252Z,93686.00
2023-03-27T01:02:00.373Z,93686.00
2023-03-27T01:06:00.482Z,93690.00
2023-03-27T01:10:00.540Z,93680.00
2023-03-27T01:14:00.666Z,93694.00
2023-03-27T01:18:00.943Z,93695.00
2023-03-27T01:22:00.939Z,93699.00
2023-03-27T01:26:01.006Z,93686.00
2023-03-27T01:30:01.085Z,93686.00
2023-03-27T01:34:01.290Z,93690.00
2023-03-27T01:38:01.366Z,93695.00
2023-03-27T01:42:01.481Z,93699.00
2023-03-27T01:46:01.611Z,93695.00
2023-03-27T01:50:01.750Z,93705.00
2023-03-27T01:54:01.806Z,93703.00
2023-03-27T01:58:01.960Z,93694.00
2023-03-27T02:02:02.691Z,93701.00
2023-03-27T02:06:02.153Z,93701.00
2023-03-27T02:10:02.292Z,93703.00
2023-03-27T02:14:02.434Z,93703.00
2023-03-27T02:18:02.587Z,93705.00
2023-03-27T02:22:02.645Z,93705.00
2023-03-27T02:26:02.769Z,93697.00
2023-03-27T02:30:02.915Z,93692.00
2023-03-27T02:34:03.044Z,93695.00
2023-03-27T02:38:03.097Z,93694.00
2023-03-27T02:42:03.223Z,93688.00
2023-03-27T02:46:03.437Z,93690.00
2023-03-27T02:50:03.416Z,93694.00
2023-03-27T02:54:03.509Z,93699.00
2023-03-27T02:58:03.673Z,93695.00
2023-03-27T03:02:03.783Z,93699.00
2023-03-27T03:06:03.979Z,93703.00
2023-03-27T03:10:04.321Z,93705.00
2023-03-27T03:14:04.120Z,93707.00
2023-03-27T03:18:04.294Z,93713.00
2023-03-27T03:22:04.328Z,93705.00
2023-03-27T03:26:04.459Z,93697.00
2023-03-27T03:30:04.572Z,93705.00
2023-03-27T03:34:04.686Z,93705.00
2023-03-27T03:38:04.851Z,93717.00
2023-03-27T03:42:04.846Z,93721.00
2023-03-27T03:46:04.998Z,93729.00
2023-03-27T03:50:05.062Z,93735.00
2023-03-27T03:54:05.186Z,93744.00
2023-03-27T03:58:05.387Z,93750.00
2023-03-27T04:02:05.351Z,93746.00
2023-03-27T04:06:05.695Z,93752.00
2023-03-27T04:10:05.534Z,93758.00
2023-03-27T04:14:05.620Z,93758.00
2023-03-27T04:18:05.836Z,93760.00
2023-03-27T04:22:05.884Z,93756.00
2023-03-27T04:26:06.069Z,93760.00
2023-03-27T04:30:06.063Z,93756.00
2023-03-27T04:34:06.176Z,93760.00
2023-03-27T04:38:06.266Z,93778.00
2023-03-27T04:42:06.848Z,93789.00
2023-03-27T04:46:06.463Z,93793.00
2023-03-27T04:50:09.316Z,93781.00
2023-03-27T04:54:06.507Z,93807.00
2023-03-27T04:58:06.551Z,93809.00
2023-03-27T05:02:06.518Z,93815.00
2023-03-27T05:06:06.435Z,93821.00
2023-03-27T05:10:06.426Z,93838.00
2023-03-27T05:14:06.391Z,93842.00
2023-03-27T05:18:06.426Z,93846.00
2023-03-27T05:22:06.357Z,93842.00
2023-03-27T05:26:06.209Z,93838.00
2023-03-27T05:30:06.197Z,93848.00
2023-03-27T05:34:06.168Z,93856.00
2023-03-27T05:38:06.146Z,93876.00
2023-03-27T05:42:06.088Z,93889.00
2023-03-27T05:46:06.357Z,93883.00
2023-03-27T05:50:06.006Z,93913.00
2023-03-27T05:54:05.966Z,93903.00
2023-03-27T05:58:05.922Z,93919.00
2023-03-27T06:02:05.964Z,93924.00
2023-03-27T06:06:06.011Z,93938.00
2023-03-27T06:10:06.150Z,93940.00
2023-03-27T06:14:07.049Z,93967.00
2023-03-27T06:18:06.060Z,93981.00
2023-03-27T06:22:05.980Z,93983.00
2023-03-27T06:26:06.070Z,93997.00
2023-03-27T06:30:06.259Z,94022.00
2023-03-27T06:34:06.322Z,94036.00
2023-03-27T06:38:06.392Z,94036.00
2023-03-27T06:42:06.712Z,94050.00
2023-03-27T06:46:06.846Z,94065.00
2023-03-27T06:50:06.901Z,94077.00
2023-03-27T06:54:07.002Z,94093.00
2023-03-27T06:58:07.111Z,94112.00
2023-03-27T07:02:07.253Z,94124.00
2023-03-27T07:06:07.383Z,94120.00
2023-03-27T07:10:07.889Z,94146.00
2023-03-27T07:14:07.586Z,94165.00
2023-03-27T07:18:07.658Z,94171.00
2023-03-27T07:22:07.775Z,94173.00
2023-03-27T07:26:07.858Z,94212.00
2023-03-27T07:30:07.935Z,94199.00
2023-03-27T07:34:08.530Z,94224.00
2023-03-27T07:38:08.421Z,94236.00
2023-03-27T07:42:08.358Z,94251.00
2023-03-27T07:46:08.611Z,94259.00
2023-03-27T07:50:08.546Z,94287.00
2023-03-27T07:54:08.606Z,94298.00
2023-03-27T07:58:08.863Z,94308.00
2023-03-27T08:02:08.808Z,94312.00
2023-03-27T08:06:08.908Z,94324.00
2023-03-27T08:10:09.056Z,94337.00
2023-03-27T08:14:09.172Z,94343.00
2023-03-27T08:18:09.941Z,94353.00
2023-03-27T08:22:09.326Z,94367.00
2023-03-27T08:26:09.459Z,94371.00
2023-03-27T08:30:09.644Z,94379.00
2023-03-27T08:34:09.609Z,94382.00
2023-03-27T08:38:23.691Z,94394.00
2023-03-27T08:42:10.792Z,94392.00
2023-03-27T08:46:09.740Z,94400.00
2023-03-27T08:50:09.725Z,94420.00
2023-03-27T08:54:10.189Z,94422.00
2023-03-27T08:58:10.046Z,94433.00
2023-03-27T09:02:10.287Z,94441.00
2023-03-27T09:06:10.252Z,94447.00
2023-03-27T09:10:10.379Z,94453.00
2023-03-27T09:14:10.543Z,94457.00
2023-03-27T09:18:10.662Z,94463.00
2023-03-27T09:22:10.682Z,94469.00
2023-03-27T09:26:10.786Z,94478.00
2023-03-27T09:30:10.982Z,94484.00
2023-03-27T09:34:11.002Z,94494.00
2023-03-27T09:38:11.041Z,94498.00
2023-03-27T09:42:11.195Z,94502.00
2023-03-27T09:46:11.360Z,94502.00
2023-03-27T09:50:11.446Z,94492.00
2023-03-27T09:54:11.597Z,94494.00
2023-03-27T09:58:12.463Z,94502.00
2023-03-27T10:02:11.836Z,94484.00
2023-03-27T10:06:11.870Z,94496.00
2023-03-27T10:10:12.182Z,94514.00
2023-03-27T10:14:12.066Z,94518.00
2023-03-27T10:18:12.282Z,94514.00
2023-03-27T10:22:14.336Z,94525.00
2023-03-27T10:26:12.524Z,94527.00
2023-03-27T10:30:12.530Z,94537.00
2023-03-27T10:34:12.603Z,94533.00
2023-03-27T10:38:12.716Z,94541.00
2023-03-27T10:42:12.895Z,94533.00
2023-03-27T10:46:13.119Z,94537.00
2023-03-27T10:50:13.103Z,94539.00
2023-03-27T10:54:13.200Z,94535.00
2023-03-27T10:58:13.298Z,94539.00
2023-03-27T11:02:13.364Z,94545.00
2023-03-27T11:06:13.462Z,94551.00
2023-03-27T11:10:13.598Z,94563.00
2023-03-27T11:14:13.668Z,94566.00
2023-03-27T11:18:13.728Z,94568.00
2023-03-27T11:22:14.063Z,94584.00
2023-03-27T11:26:13.862Z,94584.00
2023-03-27T11:30:13.871Z,94588.00
2023-03-27T11:34:13.996Z,94596.00
2023-03-27T11:38:15.008Z,94606.00
2023-03-27T11:42:13.907Z,94606.00
2023-03-27T11:46:13.890Z,94608.00
2023-03-27T11:50:13.811Z,94608.00
2023-03-27T11:54:13.878Z,94604.00
2023-03-27T11:58:13.948Z,94625.00
2023-03-27T12:02:14.065Z,94621.00
2023-03-27T12:06:14.089Z,94623.00
2023-03-27T12:10:14.156Z,94619.00
2023-03-27T12:14:18.420Z,94645.00
2023-03-27T12:18:14.148Z,94657.00
2023-03-27T12:22:22.872Z,94666.00
2023-03-27T12:26:15.090Z,94666.00
2023-03-27T12:30:14.039Z,94655.00
2023-03-27T12:34:14.038Z,94674.00
2023-03-27T12:38:14.153Z,94672.00
2023-03-27T12:42:14.293Z,94670.00
2023-03-27T12:46:14.426Z,94684.00
2023-03-27T12:50:14.386Z,94692.00
2023-03-27T12:54:14.491Z,94702.00
2023-03-27T12:58:14.731Z,94702.00
2023-03-27T13:02:14.753Z,94702.00
2023-03-27T13:06:14.884Z,94700.00
2023-03-27T13:10:15.015Z,94713.00
2023-03-27T13:14:15.021Z,94705.00
2023-03-27T13:18:15.176Z,94700.00
2023-03-27T13:22:15.228Z,94713.00
2023-03-27T13:26:15.312Z,94725.00
2023-03-27T13:30:15.452Z,94747.00
2023-03-27T13:34:15.523Z,94739.00
2023-03-27T13:38:15.588Z,94747.00
2023-03-27T13:42:16.540Z,94754.00
2023-03-27T13:46:16.537Z,94758.00
2023-03-27T13:50:15.871Z,94756.00
2023-03-27T13:54:15.954Z,94762.00
2023-03-27T13:58:16.090Z,94762.00
2023-03-27T14:02:16.209Z,94784.00
2023-03-27T14:06:16.202Z,94788.00
2023-03-27T14:10:16.264Z,94788.00
2023-03-27T14:14:16.408Z,94803.00
2023-03-27T14:18:16.472Z,94811.00
2023-03-27T14:22:16.572Z,94817.00
2023-03-27T14:26:16.645Z,94837.00
2023-03-27T14:30:16.654Z,94845.00
2023-03-27T14:34:16.756Z,94846.00
2023-03-27T14:38:16.852Z,94843.00
2023-03-27T14:42:16.875Z,94845.00
2023-03-27T14:46:17.025Z,94858.00
2023-03-27T14:50:17.051Z,94860.00
2023-03-27T14:54:17.130Z,94864.00
2023-03-27T14:58:17.265Z,94866.00
2023-03-27T15:02:17.361Z,94874.00
2023-03-27T15:06:17.443Z,94880.00
2023-03-27T15:10:17.547Z,94888.00
2023-03-27T15:14:17.517Z,94905.00
2023-03-27T15:18:17.658Z,94925.00
2023-03-27T15:22:17.780Z,94931.00
2023-03-27T15:26:17.812Z,94942.00
2023-03-27T15:30:17.907Z,94956.00
2023-03-27T15:34:18.019Z,94950.00
2023-03-27T15:38:18.092Z,94958.00
2023-03-27T15:42:18.241Z,94956.00
2023-03-27T15:46:18.430Z,94966.00
2023-03-27T15:50:18.469Z,94964.00
2023-03-27T15:54:18.615Z,94958.00
2023-03-27T15:58:18.718Z,94966.00
2023-03-27T16:02:18.948Z,94974.00
2023-03-27T16:06:18.917Z,94976.00
2023-03-27T16:10:19.116Z,94987.00
2023-03-27T16:14:19.249Z,94995.00
2023-03-27T16:18:19.385Z,95001.00
2023-03-27T16:22:19.510Z,94997.00
2023-03-27T16:26:19.647Z,95009.00
2023-03-27T16:30:19.707Z,95027.00
2023-03-27T16:34:22.441Z,95036.00
2023-03-27T16:38:20.084Z,95046.00
2023-03-27T16:42:19.847Z,95054.00
2023-03-27T16:46:19.784Z,95066.00
2023-03-27T16:50:19.860Z,95073.00
2023-03-27T16:54:19.721Z,95075.00
2023-03-27T16:58:19.655Z,95079.00
2023-03-27T17:02:19.686Z,95066.00
2023-03-27T17:06:19.587Z,95068.00
2023-03-27T17:10:19.666Z,95068.00
2023-03-27T17:14:19.888Z,95068.00
2023-03-27T17:18:20.606Z,95077.00
2023-03-27T17:22:20.223Z,95093.00
2023-03-27T17:26:20.284Z,95093.00
2023-03-27T17:30:34.525Z,95093.00
2023-03-27T17:34:21.435Z,95123.00
2023-03-27T17:38:20.378Z,95125.00
2023-03-27T17:42:20.415Z,95130.00
2023-03-27T17:46:20.708Z,95138.00
2023-03-27T17:50:20.754Z,95136.00
2023-03-27T17:54:20.877Z,95136.00
2023-03-27T17:58:21.021Z,95134.00
2023-03-27T18:02:21.249Z,95134.00
2023-03-27T18:06:21.350Z,95140.00
2023-03-27T18:10:21.487Z,95148.00
2023-03-27T18:14:21.706Z,95142.00
2023-03-27T18:18:21.778Z,95152.00
2023-03-27T18:22:21.964Z,95123.00
2023-03-27T18:26:22.107Z,95130.00
2023-03-27T18:30:22.237Z,95162.00
2023-03-27T18:34:22.398Z,95169.00
2023-03-27T18:38:22.528Z,95165.00
2023-03-27T18:42:22.798Z,95181.00
2023-03-27T18:46:22.932Z,95207.00
2023-03-27T18:50:22.968Z,95199.00
2023-03-27T18:54:23.118Z,95205.00
2023-03-27T18:58:23.229Z,95191.00
2023-03-27T19:02:23.482Z,95187.00
2023-03-27T19:06:23.729Z,95191.00
2023-03-27T19:10:23.724Z,95201.00
2023-03-27T19:14:24.164Z,95203.00
2023-03-27T19:18:23.903Z,95205.00
2023-03-27T19:22:24.053Z,95213.00
2023-03-27T19:26:24.141Z,95226.00
2023-03-27T19:30:24.778Z,95226.00
2023-03-27T19:34:36.134Z,95226.00
2023-03-27T19:38:25.327Z,95230.00
2023-03-27T19:42:24.279Z,95238.00
2023-03-27T19:46:24.225Z,95244.00
2023-03-27T19:50:24.220Z,95244.00
2023-03-27T19:54:24.257Z,95240.00
2023-03-27T19:58:24.335Z,95240.00
2023-03-27T20:02:24.438Z,95242.00
2023-03-27T20:06:24.388Z,95248.00
2023-03-27T20:10:24.509Z,95234.00
2023-03-27T20:14:24.606Z,95234.00
2023-03-27T20:18:24.670Z,95236.00
2023-03-27T20:22:24.749Z,95244.00
2023-03-27T20:26:24.776Z,95244.00
2023-03-27T20:30:24.858Z,95254.00
2023-03-27T20:34:24.941Z,95264.00
2023-03-27T20:38:25.052Z,95271.00
2023-03-27T20:42:25.159Z,95281.00
2023-03-27T20:46:25.259Z,95275.00
2023-03-27T20:50:25.276Z,95283.00
2023-03-27T20:54:25.375Z,95293.00
2023-03-27T20:58:25.478Z,95287.00
2023-03-27T21:02:25.671Z,95287.00
2023-03-27T21:06:25.832Z,95279.00
2023-03-27T21:10:26.196Z,95285.00
2023-03-27T21:14:25.998Z,95283.00
2023-03-27T21:18:26.056Z,95287.00
2023-03-27T21:22:26.187Z,95291.00
2023-03-27T21:26:26.279Z,95291.00
2023-03-27T21:30:46.628Z,95289.00
2023-03-27T21:34:27.294Z,95289.00
2023-03-27T21:38:26.400Z,95281.00
2023-03-27T21:42:26.510Z,95281.00
2023-03-27T21:46:26.627Z,95287.00
2023-03-27T21:50:26.706Z,95299.00
2023-03-27T21:54:26.811Z,95299.00
2023-03-27T21:58:26.897Z,95301.00
2023-03-27T22:02:27.113Z,95311.00
2023-03-27T22:06:27.125Z,95318.00
2023-03-27T22:10:27.229Z,95326.00
2023-03-27T22:14:27.355Z,95328.00
2023-03-27T22:18:27.501Z,95334.00
2023-03-27T22:22:27.596Z,95332.00
2023-03-27T22:26:27.751Z,95328.00
2023-03-27T22:30:27.878Z,95334.00
2023-03-27T22:34:27.984Z,95346.00
2023-03-27T22:38:28.106Z,95344.00
2023-03-27T22:42:28.225Z,95353.00
2023-03-27T22:46:28.386Z,95369.00
2023-03-27T22:50:28.435Z,95371.00
2023-03-27T22:54:28.523Z,95363.00
2023-03-27T22:58:28.672Z,95387.00
2023-03-27T23:02:28.855Z,95375.00
2023-03-27T23:06:28.854Z,95387.00
2023-03-27T23:10:28.973Z,95385.00
2023-03-27T23:14:29.131Z,95391.00
2023-03-27T23:18:29.261Z,95393.00
2023-03-27T23:22:29.308Z,95387.00
2023-03-27T23:26:29.441Z,95381.00
2023-03-27T23:30:29.588Z,95383.00
2023-03-27T23:34:29.655Z,95379.00
2023-03-27T23:38:29.800Z,95383.00
2023-03-27T23:42:29.880Z,95383.00
2023-03-27T23:46:30.164Z,95395.00
2023-03-27T23:50:30.174Z,95400.00
2023-03-27T23:54:30.316Z,95410.00
2023-03-27T23:58:30.392Z,95410.00
